sensor_id;sensor_type;location;lat;lon;timestamp;P1;durP1;ratioP1;P2;durP2;ratioP2
3541;SDS011;1785;47.388;8.538;2023-11-18T00:02:23;2.43;;;2.23;;
3541;SDS011;1785;47.388;8.538;2023-11-18T00:04:50;3.83;;;2.63;;
3541;SDS011;1785;47.388;8.538;2023-11-18T00:07:17;3.00;;;2.70;;
3541;SDS011;1785;47.388;8.538;2023-11-18T00:09:43;2.87;;;2.67;;
3541;SDS011;1785;47.388;8.538;2023-11-18T00:12:11;2.83;;;2.73;;
3541;SDS011;1785;47.388;8.538;2023-11-18T00:14:40;2.80;;;2.60;;
3541;SDS011;1785;47.388;8.538;2023-11-18T00:17:07;2.83;;;2.73;;
3541;SDS011;1785;47.388;8.538;2023-11-18T00:19:35;2.50;;;2.30;;
3541;SDS011;1785;47.388;8.538;2023-11-18T00:22:01;3.10;;;2.80;;
3541;SDS011;1785;47.388;8.538;2023-11-18T00:24:28;2.50;;;2.27;;
3541;SDS011;1785;47.388;8.538;2023-11-18T00:26:54;3.37;;;3.07;;
3541;SDS011;1785;47.388;8.538;2023-11-18T00:29:20;2.70;;;2.53;;
3541;SDS011;1785;47.388;8.538;2023-11-18T00:31:46;3.60;;;2.90;;
3541;SDS011;1785;47.388;8.538;2023-11-18T00:34:12;3.20;;;2.60;;
3541;SDS011;1785;47.388;8.538;2023-11-18T00:36:39;2.90;;;2.70;;
3541;SDS011;1785;47.388;8.538;2023-11-18T00:39:05;2.97;;;2.87;;
3541;SDS011;1785;47.388;8.538;2023-11-18T00:41:32;3.20;;;3.00;;
3541;SDS011;1785;47.388;8.538;2023-11-18T00:43:58;3.00;;;2.90;;
3541;SDS011;1785;47.388;8.538;2023-11-18T00:46:24;2.63;;;2.50;;
3541;SDS011;1785;47.388;8.538;2023-11-18T00:48:51;2.93;;;2.73;;
3541;SDS011;1785;47.388;8.538;2023-11-18T00:51:17;2.80;;;2.60;;
3541;SDS011;1785;47.388;8.538;2023-11-18T00:53:43;3.10;;;2.70;;
3541;SDS011;1785;47.388;8.538;2023-11-18T00:56:12;2.70;;;2.50;;
3541;SDS011;1785;47.388;8.538;2023-11-18T00:58:43;3.30;;;3.10;;
3541;SDS011;1785;47.388;8.538;2023-11-18T01:01:09;3.70;;;3.40;;
3541;SDS011;1785;47.388;8.538;2023-11-18T01:03:36;3.53;;;3.00;;
3541;SDS011;1785;47.388;8.538;2023-11-18T01:06:03;2.73;;;2.60;;
3541;SDS011;1785;47.388;8.538;2023-11-18T01:08:31;3.00;;;2.80;;
3541;SDS011;1785;47.388;8.538;2023-11-18T01:10:57;4.60;;;3.03;;
3541;SDS011;1785;47.388;8.538;2023-11-18T01:13:23;2.80;;;2.60;;
3541;SDS011;1785;47.388;8.538;2023-11-18T01:15:52;2.50;;;2.40;;
3541;SDS011;1785;47.388;8.538;2023-11-18T01:18:18;4.00;;;2.50;;
3541;SDS011;1785;47.388;8.538;2023-11-18T01:20:44;2.93;;;2.73;;
3541;SDS011;1785;47.388;8.538;2023-11-18T01:23:10;2.70;;;2.50;;
3541;SDS011;1785;47.388;8.538;2023-11-18T01:25:36;3.20;;;3.00;;
3541;SDS011;1785;47.388;8.538;2023-11-18T01:28:02;2.60;;;2.50;;
3541;SDS011;1785;47.388;8.538;2023-11-18T01:30:29;2.80;;;2.60;;
3541;SDS011;1785;47.388;8.538;2023-11-18T01:32:56;6.17;;;2.47;;
3541;SDS011;1785;47.388;8.538;2023-11-18T01:35:22;3.30;;;2.60;;
3541;SDS011;1785;47.388;8.538;2023-11-18T01:37:51;2.97;;;2.70;;
3541;SDS011;1785;47.388;8.538;2023-11-18T01:40:17;3.60;;;3.40;;
3541;SDS011;1785;47.388;8.538;2023-11-18T01:42:44;3.50;;;3.20;;
3541;SDS011;1785;47.388;8.538;2023-11-18T01:45:11;3.60;;;3.27;;
3541;SDS011;1785;47.388;8.538;2023-11-18T01:47:39;3.33;;;3.10;;
3541;SDS011;1785;47.388;8.538;2023-11-18T01:50:07;4.00;;;3.30;;
3541;SDS011;1785;47.388;8.538;2023-11-18T01:52:36;3.63;;;3.33;;
3541;SDS011;1785;47.388;8.538;2023-11-18T01:55:03;4.33;;;2.90;;
3541;SDS011;1785;47.388;8.538;2023-11-18T01:57:31;4.27;;;3.53;;
3541;SDS011;1785;47.388;8.538;2023-11-18T01:59:58;3.53;;;3.23;;
3541;SDS011;1785;47.388;8.538;2023-11-18T02:02:25;3.90;;;3.60;;
3541;SDS011;1785;47.388;8.538;2023-11-18T02:04:51;3.70;;;3.40;;
3541;SDS011;1785;47.388;8.538;2023-11-18T02:07:18;3.50;;;3.20;;
3541;SDS011;1785;47.388;8.538;2023-11-18T02:09:46;3.63;;;3.30;;
3541;SDS011;1785;47.388;8.538;2023-11-18T02:12:15;3.17;;;2.97;;
3541;SDS011;1785;47.388;8.538;2023-11-18T02:14:47;3.60;;;3.30;;
3541;SDS011;1785;47.388;8.538;2023-11-18T02:17:15;3.00;;;2.80;;
3541;SDS011;1785;47.388;8.538;2023-11-18T02:19:43;3.40;;;3.20;;
3541;SDS011;1785;47.388;8.538;2023-11-18T02:22:11;3.67;;;3.47;;
3541;SDS011;1785;47.388;8.538;2023-11-18T02:24:38;3.37;;;3.17;;
3541;SDS011;1785;47.388;8.538;2023-11-18T02:27:06;3.27;;;3.07;;
3541;SDS011;1785;47.388;8.538;2023-11-18T02:29:33;2.93;;;2.73;;
3541;SDS011;1785;47.388;8.538;2023-11-18T02:32:03;2.83;;;2.67;;
3541;SDS011;1785;47.388;8.538;2023-11-18T02:34:35;3.13;;;2.93;;
3541;SDS011;1785;47.388;8.538;2023-11-18T02:37:07;4.40;;;2.90;;
3541;SDS011;1785;47.388;8.538;2023-11-18T02:39:36;2.80;;;2.70;;
3541;SDS011;1785;47.388;8.538;2023-11-18T02:42:08;2.90;;;2.77;;
3541;SDS011;1785;47.388;8.538;2023-11-18T02:44:37;2.73;;;2.53;;
3541;SDS011;1785;47.388;8.538;2023-11-18T02:47:04;4.73;;;3.17;;
3541;SDS011;1785;47.388;8.538;2023-11-18T02:49:30;3.00;;;2.80;;
3541;SDS011;1785;47.388;8.538;2023-11-18T02:51:57;4.37;;;4.07;;
3541;SDS011;1785;47.388;8.538;2023-11-18T02:54:23;3.93;;;3.63;;
3541;SDS011;1785;47.388;8.538;2023-11-18T02:56:51;4.67;;;4.30;;
3541;SDS011;1785;47.388;8.538;2023-11-18T02:59:18;4.37;;;4.07;;
3541;SDS011;1785;47.388;8.538;2023-11-18T03:01:44;5.90;;;4.80;;
3541;SDS011;1785;47.388;8.538;2023-11-18T03:04:10;4.43;;;3.97;;
3541;SDS011;1785;47.388;8.538;2023-11-18T03:06:36;5.77;;;4.00;;
3541;SDS011;1785;47.388;8.538;2023-11-18T03:09:03;4.53;;;4.20;;
3541;SDS011;1785;47.388;8.538;2023-11-18T03:11:32;4.20;;;3.80;;
3541;SDS011;1785;47.388;8.538;2023-11-18T03:13:58;4.50;;;4.20;;
3541;SDS011;1785;47.388;8.538;2023-11-18T03:16:25;4.37;;;4.07;;
3541;SDS011;1785;47.388;8.538;2023-11-18T03:18:52;4.50;;;4.10;;
3541;SDS011;1785;47.388;8.538;2023-11-18T03:21:20;4.53;;;4.23;;
3541;SDS011;1785;47.388;8.538;2023-11-18T03:23:46;4.17;;;3.90;;
3541;SDS011;1785;47.388;8.538;2023-11-18T03:26:12;5.20;;;4.57;;
3541;SDS011;1785;47.388;8.538;2023-11-18T03:28:38;4.60;;;4.30;;
3541;SDS011;1785;47.388;8.538;2023-11-18T03:31:06;5.40;;;4.13;;
3541;SDS011;1785;47.388;8.538;2023-11-18T03:33:33;4.73;;;4.40;;
3541;SDS011;1785;47.388;8.538;2023-11-18T03:35:59;4.20;;;3.90;;
3541;SDS011;1785;47.388;8.538;2023-11-18T03:38:25;4.40;;;4.10;;
3541;SDS011;1785;47.388;8.538;2023-11-18T03:40:52;5.03;;;4.07;;
3541;SDS011;1785;47.388;8.538;2023-11-18T03:43:18;4.70;;;4.30;;
3541;SDS011;1785;47.388;8.538;2023-11-18T03:45:45;5.17;;;4.77;;
3541;SDS011;1785;47.388;8.538;2023-11-18T03:48:11;4.27;;;3.97;;
3541;SDS011;1785;47.388;8.538;2023-11-18T03:50:40;4.90;;;4.50;;
3541;SDS011;1785;47.388;8.538;2023-11-18T03:53:06;4.50;;;4.20;;
3541;SDS011;1785;47.388;8.538;2023-11-18T03:55:32;4.57;;;4.27;;
3541;SDS011;1785;47.388;8.538;2023-11-18T03:57:58;5.20;;;4.80;;
3541;SDS011;1785;47.388;8.538;2023-11-18T04:00:25;4.53;;;4.23;;
3541;SDS011;1785;47.388;8.538;2023-11-18T04:02:54;4.90;;;4.33;;
3541;SDS011;1785;47.388;8.538;2023-11-18T04:05:21;5.40;;;4.90;;
3541;SDS011;1785;47.388;8.538;2023-11-18T04:07:48;4.80;;;4.40;;
3541;SDS011;1785;47.388;8.538;2023-11-18T04:10:14;4.67;;;3.90;;
3541;SDS011;1785;47.388;8.538;2023-11-18T04:12:45;4.93;;;4.60;;
3541;SDS011;1785;47.388;8.538;2023-11-18T04:15:13;4.63;;;4.33;;
3541;SDS011;1785;47.388;8.538;2023-11-18T04:17:39;4.63;;;4.33;;
3541;SDS011;1785;47.388;8.538;2023-11-18T04:20:06;4.70;;;4.40;;
3541;SDS011;1785;47.388;8.538;2023-11-18T04:22:37;5.33;;;4.90;;
3541;SDS011;1785;47.388;8.538;2023-11-18T04:25:05;4.57;;;4.27;;
3541;SDS011;1785;47.388;8.538;2023-11-18T04:27:32;3.60;;;3.40;;
3541;SDS011;1785;47.388;8.538;2023-11-18T04:29:58;4.87;;;4.50;;
3541;SDS011;1785;47.388;8.538;2023-11-18T04:32:26;4.00;;;3.80;;
3541;SDS011;1785;47.388;8.538;2023-11-18T04:34:52;4.93;;;4.63;;
3541;SDS011;1785;47.388;8.538;2023-11-18T04:37:18;4.87;;;4.57;;
3541;SDS011;1785;47.388;8.538;2023-11-18T04:39:44;5.57;;;5.20;;
3541;SDS011;1785;47.388;8.538;2023-11-18T04:42:11;4.50;;;4.20;;
3541;SDS011;1785;47.388;8.538;2023-11-18T04:44:38;4.80;;;4.50;;
3541;SDS011;1785;47.388;8.538;2023-11-18T04:47:04;5.00;;;4.63;;
3541;SDS011;1785;47.388;8.538;2023-11-18T04:49:31;5.27;;;4.87;;
3541;SDS011;1785;47.388;8.538;2023-11-18T04:51:57;4.93;;;4.63;;
3541;SDS011;1785;47.388;8.538;2023-11-18T04:54:24;5.37;;;4.40;;
3541;SDS011;1785;47.388;8.538;2023-11-18T04:56:50;4.40;;;4.00;;
3541;SDS011;1785;47.388;8.538;2023-11-18T04:59:18;5.30;;;4.80;;
3541;SDS011;1785;47.388;8.538;2023-11-18T05:01:44;5.10;;;4.70;;
3541;SDS011;1785;47.388;8.538;2023-11-18T05:04:10;6.80;;;4.50;;
3541;SDS011;1785;47.388;8.538;2023-11-18T05:06:37;5.23;;;4.83;;
3541;SDS011;1785;47.388;8.538;2023-11-18T05:09:03;5.47;;;5.10;;
3541;SDS011;1785;47.388;8.538;2023-11-18T05:11:32;4.90;;;4.60;;
3541;SDS011;1785;47.388;8.538;2023-11-18T05:13:58;6.13;;;5.63;;
3541;SDS011;1785;47.388;8.538;2023-11-18T05:16:26;5.17;;;4.63;;
3541;SDS011;1785;47.388;8.538;2023-11-18T05:18:52;5.70;;;5.03;;
3541;SDS011;1785;47.388;8.538;2023-11-18T05:21:18;5.03;;;4.63;;
3541;SDS011;1785;47.388;8.538;2023-11-18T05:23:45;5.70;;;5.30;;
3541;SDS011;1785;47.388;8.538;2023-11-18T05:26:11;5.77;;;5.37;;
3541;SDS011;1785;47.388;8.538;2023-11-18T05:28:37;5.43;;;5.03;;
3541;SDS011;1785;47.388;8.538;2023-11-18T05:31:04;5.37;;;5.07;;
3541;SDS011;1785;47.388;8.538;2023-11-18T05:33:31;5.27;;;4.90;;
3541;SDS011;1785;47.388;8.538;2023-11-18T05:36:00;6.50;;;4.97;;
3541;SDS011;1785;47.388;8.538;2023-11-18T05:38:30;5.37;;;5.07;;
3541;SDS011;1785;47.388;8.538;2023-11-18T05:40:59;5.70;;;5.30;;
3541;SDS011;1785;47.388;8.538;2023-11-18T05:43:28;5.30;;;5.00;;
3541;SDS011;1785;47.388;8.538;2023-11-18T05:46:01;5.20;;;4.83;;
3541;SDS011;1785;47.388;8.538;2023-11-18T05:48:42;5.80;;;5.40;;
3541;SDS011;1785;47.388;8.538;2023-11-18T05:51:08;5.53;;;5.03;;
3541;SDS011;1785;47.388;8.538;2023-11-18T05:53:38;5.00;;;4.70;;
3541;SDS011;1785;47.388;8.538;2023-11-18T05:56:05;5.63;;;5.23;;
3541;SDS011;1785;47.388;8.538;2023-11-18T05:58:32;5.63;;;5.20;;
3541;SDS011;1785;47.388;8.538;2023-11-18T06:00:58;5.20;;;4.80;;
3541;SDS011;1785;47.388;8.538;2023-11-18T06:03:25;4.83;;;4.43;;
3541;SDS011;1785;47.388;8.538;2023-11-18T06:05:52;6.03;;;5.43;;
3541;SDS011;1785;47.388;8.538;2023-11-18T06:08:18;4.57;;;4.27;;
3541;SDS011;1785;47.388;8.538;2023-11-18T06:10:44;5.93;;;5.43;;
3541;SDS011;1785;47.388;8.538;2023-11-18T06:13:10;6.07;;;5.47;;
3541;SDS011;1785;47.388;8.538;2023-11-18T06:15:38;6.57;;;5.70;;
3541;SDS011;1785;47.388;8.538;2023-11-18T06:18:04;6.30;;;5.80;;
3541;SDS011;1785;47.388;8.538;2023-11-18T06:20:30;6.40;;;5.80;;
3541;SDS011;1785;47.388;8.538;2023-11-18T06:22:59;6.43;;;5.93;;
3541;SDS011;1785;47.388;8.538;2023-11-18T06:25:25;6.30;;;5.80;;
3541;SDS011;1785;47.388;8.538;2023-11-18T06:27:51;6.13;;;5.63;;
3541;SDS011;1785;47.388;8.538;2023-11-18T06:30:18;5.00;;;4.70;;
3541;SDS011;1785;47.388;8.538;2023-11-18T06:32:44;6.40;;;5.90;;
3541;SDS011;1785;47.388;8.538;2023-11-18T06:35:12;6.47;;;5.97;;
3541;SDS011;1785;47.388;8.538;2023-11-18T06:37:39;6.70;;;6.20;;
3541;SDS011;1785;47.388;8.538;2023-11-18T06:40:08;7.20;;;6.60;;
3541;SDS011;1785;47.388;8.538;2023-11-18T06:42:41;6.80;;;6.30;;
3541;SDS011;1785;47.388;8.538;2023-11-18T06:45:08;6.63;;;6.20;;
3541;SDS011;1785;47.388;8.538;2023-11-18T06:47:35;5.73;;;5.33;;
3541;SDS011;1785;47.388;8.538;2023-11-18T06:50:01;7.07;;;6.47;;
3541;SDS011;1785;47.388;8.538;2023-11-18T06:52:27;8.17;;;6.77;;
3541;SDS011;1785;47.388;8.538;2023-11-18T06:54:53;6.83;;;6.33;;
3541;SDS011;1785;47.388;8.538;2023-11-18T06:57:20;6.83;;;6.27;;
3541;SDS011;1785;47.388;8.538;2023-11-18T06:59:46;7.93;;;6.53;;
3541;SDS011;1785;47.388;8.538;2023-11-18T07:02:13;6.47;;;6.03;;
3541;SDS011;1785;47.388;8.538;2023-11-18T07:04:40;7.40;;;7.00;;
3541;SDS011;1785;47.388;8.538;2023-11-18T07:07:06;7.60;;;7.00;;
3541;SDS011;1785;47.388;8.538;2023-11-18T07:09:34;7.53;;;6.93;;
3541;SDS011;1785;47.388;8.538;2023-11-18T07:12:01;6.70;;;6.20;;
3541;SDS011;1785;47.388;8.538;2023-11-18T07:14:29;6.17;;;5.87;;
3541;SDS011;1785;47.388;8.538;2023-11-18T07:16:55;6.17;;;5.77;;
3541;SDS011;1785;47.388;8.538;2023-11-18T07:19:21;7.07;;;6.27;;
3541;SDS011;1785;47.388;8.538;2023-11-18T07:21:48;6.80;;;6.30;;
3541;SDS011;1785;47.388;8.538;2023-11-18T07:24:15;6.90;;;6.40;;
3541;SDS011;1785;47.388;8.538;2023-11-18T07:26:42;7.03;;;6.53;;
3541;SDS011;1785;47.388;8.538;2023-11-18T07:29:09;7.97;;;7.17;;
3541;SDS011;1785;47.388;8.538;2023-11-18T07:31:36;6.60;;;6.20;;
3541;SDS011;1785;47.388;8.538;2023-11-18T07:34:02;6.93;;;6.33;;
3541;SDS011;1785;47.388;8.538;2023-11-18T07:36:30;7.53;;;6.93;;
3541;SDS011;1785;47.388;8.538;2023-11-18T07:38:56;7.40;;;6.90;;
3541;SDS011;1785;47.388;8.538;2023-11-18T07:41:26;7.57;;;6.87;;
3541;SDS011;1785;47.388;8.538;2023-11-18T07:43:52;8.27;;;7.43;;
3541;SDS011;1785;47.388;8.538;2023-11-18T07:46:21;8.23;;;7.63;;
3541;SDS011;1785;47.388;8.538;2023-11-18T07:48:48;8.33;;;7.80;;
3541;SDS011;1785;47.388;8.538;2023-11-18T07:51:14;11.50;;;10.60;;
3541;SDS011;1785;47.388;8.538;2023-11-18T07:53:40;10.70;;;9.73;;
3541;SDS011;1785;47.388;8.538;2023-11-18T07:56:07;10.10;;;9.23;;
3541;SDS011;1785;47.388;8.538;2023-11-18T07:58:36;9.60;;;8.20;;
3541;SDS011;1785;47.388;8.538;2023-11-18T08:01:02;8.57;;;7.87;;
3541;SDS011;1785;47.388;8.538;2023-11-18T08:03:32;8.20;;;7.40;;
3541;SDS011;1785;47.388;8.538;2023-11-18T08:05:59;9.77;;;8.87;;
3541;SDS011;1785;47.388;8.538;2023-11-18T08:08:27;10.13;;;9.33;;
3541;SDS011;1785;47.388;8.538;2023-11-18T08:10:53;7.47;;;6.83;;
3541;SDS011;1785;47.388;8.538;2023-11-18T08:13:20;7.33;;;6.83;;
3541;SDS011;1785;47.388;8.538;2023-11-18T08:15:47;7.93;;;7.17;;
3541;SDS011;1785;47.388;8.538;2023-11-18T08:18:14;8.17;;;7.50;;
3541;SDS011;1785;47.388;8.538;2023-11-18T08:20:40;7.27;;;6.67;;
3541;SDS011;1785;47.388;8.538;2023-11-18T08:23:09;8.77;;;8.03;;
3541;SDS011;1785;47.388;8.538;2023-11-18T08:25:36;8.23;;;7.63;;
3541;SDS011;1785;47.388;8.538;2023-11-18T08:28:03;7.80;;;7.17;;
3541;SDS011;1785;47.388;8.538;2023-11-18T08:30:31;9.60;;;7.33;;
3541;SDS011;1785;47.388;8.538;2023-11-18T08:32:59;8.40;;;7.70;;
3541;SDS011;1785;47.388;8.538;2023-11-18T08:35:25;8.20;;;7.60;;
3541;SDS011;1785;47.388;8.538;2023-11-18T08:37:52;8.33;;;7.73;;
3541;SDS011;1785;47.388;8.538;2023-11-18T08:40:19;9.30;;;8.60;;
3541;SDS011;1785;47.388;8.538;2023-11-18T08:42:47;8.50;;;7.90;;
3541;SDS011;1785;47.388;8.538;2023-11-18T08:45:15;8.53;;;7.93;;
3541;SDS011;1785;47.388;8.538;2023-11-18T08:47:42;8.83;;;8.07;;
3541;SDS011;1785;47.388;8.538;2023-11-18T08:50:09;9.40;;;8.60;;
3541;SDS011;1785;47.388;8.538;2023-11-18T08:52:37;9.10;;;8.33;;
3541;SDS011;1785;47.388;8.538;2023-11-18T08:55:08;8.37;;;7.67;;
3541;SDS011;1785;47.388;8.538;2023-11-18T08:57:43;9.63;;;8.50;;
3541;SDS011;1785;47.388;8.538;2023-11-18T09:00:17;8.33;;;7.73;;
3541;SDS011;1785;47.388;8.538;2023-11-18T09:02:58;8.10;;;7.50;;
3541;SDS011;1785;47.388;8.538;2023-11-18T09:05:26;7.77;;;6.97;;
3541;SDS011;1785;47.388;8.538;2023-11-18T09:07:54;7.03;;;6.43;;
3541;SDS011;1785;47.388;8.538;2023-11-18T09:10:22;6.60;;;6.20;;
3541;SDS011;1785;47.388;8.538;2023-11-18T09:12:50;5.27;;;4.87;;
3541;SDS011;1785;47.388;8.538;2023-11-18T09:15:18;5.37;;;4.97;;
3541;SDS011;1785;47.388;8.538;2023-11-18T09:17:47;6.00;;;5.30;;
3541;SDS011;1785;47.388;8.538;2023-11-18T09:20:14;5.93;;;5.63;;
3541;SDS011;1785;47.388;8.538;2023-11-18T09:22:43;5.07;;;4.70;;
3541;SDS011;1785;47.388;8.538;2023-11-18T09:25:10;4.97;;;4.67;;
3541;SDS011;1785;47.388;8.538;2023-11-18T09:27:37;5.07;;;4.53;;
3541;SDS011;1785;47.388;8.538;2023-11-18T09:30:06;4.60;;;4.40;;
3541;SDS011;1785;47.388;8.538;2023-11-18T09:32:38;4.37;;;4.07;;
3541;SDS011;1785;47.388;8.538;2023-11-18T09:35:07;5.03;;;4.63;;
3541;SDS011;1785;47.388;8.538;2023-11-18T09:37:34;6.00;;;5.60;;
3541;SDS011;1785;47.388;8.538;2023-11-18T09:40:01;7.53;;;7.03;;
3541;SDS011;1785;47.388;8.538;2023-11-18T09:42:36;7.03;;;6.53;;
3541;SDS011;1785;47.388;8.538;2023-11-18T09:45:04;12.40;;;11.40;;
3541;SDS011;1785;47.388;8.538;2023-11-18T09:47:38;6.50;;;6.00;;
3541;SDS011;1785;47.388;8.538;2023-11-18T09:50:12;4.00;;;3.73;;
3541;SDS011;1785;47.388;8.538;2023-11-18T09:52:47;4.70;;;4.40;;
3541;SDS011;1785;47.388;8.538;2023-11-18T09:55:21;4.37;;;4.07;;
3541;SDS011;1785;47.388;8.538;2023-11-18T09:57:59;5.10;;;4.70;;
3541;SDS011;1785;47.388;8.538;2023-11-18T10:00:34;5.23;;;4.83;;
3541;SDS011;1785;47.388;8.538;2023-11-18T10:03:06;4.53;;;4.17;;
3541;SDS011;1785;47.388;8.538;2023-11-18T10:05:35;5.10;;;4.67;;
3541;SDS011;1785;47.388;8.538;2023-11-18T10:08:04;4.40;;;4.20;;
3541;SDS011;1785;47.388;8.538;2023-11-18T10:10:31;4.30;;;4.00;;
3541;SDS011;1785;47.388;8.538;2023-11-18T10:13:01;5.07;;;4.67;;
3541;SDS011;1785;47.388;8.538;2023-11-18T10:15:34;4.10;;;3.80;;
3541;SDS011;1785;47.388;8.538;2023-11-18T10:18:00;3.87;;;3.67;;
3541;SDS011;1785;47.388;8.538;2023-11-18T10:20:45;5.20;;;3.60;;
3541;SDS011;1785;47.388;8.538;2023-11-18T10:23:13;5.23;;;3.47;;
3541;SDS011;1785;47.388;8.538;2023-11-18T10:25:45;3.80;;;2.93;;
3541;SDS011;1785;47.388;8.538;2023-11-18T10:28:22;6.43;;;3.30;;
3541;SDS011;1785;47.388;8.538;2023-11-18T10:30:50;3.77;;;3.47;;
3541;SDS011;1785;47.388;8.538;2023-11-18T10:33:16;3.00;;;2.80;;
3541;SDS011;1785;47.388;8.538;2023-11-18T10:35:50;5.70;;;3.27;;
3541;SDS011;1785;47.388;8.538;2023-11-18T10:38:16;3.30;;;3.00;;
3541;SDS011;1785;47.388;8.538;2023-11-18T10:40:43;3.07;;;2.63;;
3541;SDS011;1785;47.388;8.538;2023-11-18T10:43:10;3.20;;;2.90;;
3541;SDS011;1785;47.388;8.538;2023-11-18T10:45:36;4.10;;;3.60;;
3541;SDS011;1785;47.388;8.538;2023-11-18T10:48:05;3.00;;;2.80;;
3541;SDS011;1785;47.388;8.538;2023-11-18T10:50:32;2.70;;;2.50;;
3541;SDS011;1785;47.388;8.538;2023-11-18T10:53:01;3.77;;;3.43;;
3541;SDS011;1785;47.388;8.538;2023-11-18T10:55:35;3.53;;;2.47;;
3541;SDS011;1785;47.388;8.538;2023-11-18T10:58:02;4.50;;;3.33;;
3541;SDS011;1785;47.388;8.538;2023-11-18T11:00:29;4.17;;;3.80;;
3541;SDS011;1785;47.388;8.538;2023-11-18T11:03:14;3.50;;;3.30;;
3541;SDS011;1785;47.388;8.538;2023-11-18T11:05:40;4.33;;;4.03;;
3541;SDS011;1785;47.388;8.538;2023-11-18T11:08:08;3.60;;;3.40;;
3541;SDS011;1785;47.388;8.538;2023-11-18T11:10:38;4.60;;;3.80;;
3541;SDS011;1785;47.388;8.538;2023-11-18T11:13:07;4.47;;;4.10;;
3541;SDS011;1785;47.388;8.538;2023-11-18T11:15:36;4.23;;;3.70;;
3541;SDS011;1785;47.388;8.538;2023-11-18T11:18:10;3.70;;;3.40;;
3541;SDS011;1785;47.388;8.538;2023-11-18T11:20:41;3.80;;;3.50;;
3541;SDS011;1785;47.388;8.538;2023-11-18T11:23:14;3.33;;;3.13;;
3541;SDS011;1785;47.388;8.538;2023-11-18T11:25:50;3.60;;;3.30;;
3541;SDS011;1785;47.388;8.538;2023-11-18T11:28:27;3.20;;;3.00;;
3541;SDS011;1785;47.388;8.538;2023-11-18T11:31:02;4.03;;;3.63;;
3541;SDS011;1785;47.388;8.538;2023-11-18T11:33:42;2.67;;;2.47;;
3541;SDS011;1785;47.388;8.538;2023-11-18T11:36:12;4.00;;;2.93;;
3541;SDS011;1785;47.388;8.538;2023-11-18T11:38:43;2.37;;;2.27;;
3541;SDS011;1785;47.388;8.538;2023-11-18T11:41:12;2.73;;;2.53;;
3541;SDS011;1785;47.388;8.538;2023-11-18T11:43:44;3.30;;;3.10;;
3541;SDS011;1785;47.388;8.538;2023-11-18T11:46:12;3.13;;;2.80;;
3541;SDS011;1785;47.388;8.538;2023-11-18T11:48:40;2.60;;;2.40;;
3541;SDS011;1785;47.388;8.538;2023-11-18T11:51:16;2.93;;;2.20;;
3541;SDS011;1785;47.388;8.538;2023-11-18T11:53:52;2.30;;;2.00;;
3541;SDS011;1785;47.388;8.538;2023-11-18T11:56:38;1.80;;;1.70;;
3541;SDS011;1785;47.388;8.538;2023-11-18T11:59:06;2.28;;;1.52;;
3541;SDS011;1785;47.388;8.538;2023-11-18T12:01:36;2.00;;;1.90;;
3541;SDS011;1785;47.388;8.538;2023-11-18T12:04:04;3.27;;;2.10;;
3541;SDS011;1785;47.388;8.538;2023-11-18T12:06:37;2.57;;;2.47;;
3541;SDS011;1785;47.388;8.538;2023-11-18T12:09:08;3.30;;;2.40;;
3541;SDS011;1785;47.388;8.538;2023-11-18T12:11:35;2.60;;;2.40;;
3541;SDS011;1785;47.388;8.538;2023-11-18T12:14:05;4.30;;;3.20;;
3541;SDS011;1785;47.388;8.538;2023-11-18T12:16:58;3.33;;;3.03;;
3541;SDS011;1785;47.388;8.538;2023-11-18T12:19:30;4.67;;;4.37;;
3541;SDS011;1785;47.388;8.538;2023-11-18T12:22:01;4.40;;;4.00;;
3541;SDS011;1785;47.388;8.538;2023-11-18T12:24:38;4.37;;;4.07;;
3541;SDS011;1785;47.388;8.538;2023-11-18T12:27:05;4.13;;;3.87;;
3541;SDS011;1785;47.388;8.538;2023-11-18T12:29:41;4.70;;;4.40;;
3541;SDS011;1785;47.388;8.538;2023-11-18T12:32:08;4.50;;;4.00;;
3541;SDS011;1785;47.388;8.538;2023-11-18T12:34:52;5.80;;;3.60;;
3541;SDS011;1785;47.388;8.538;2023-11-18T12:40:38;6.10;;;5.50;;
3541;SDS011;1785;47.388;8.538;2023-11-18T12:43:18;4.93;;;4.53;;
3541;SDS011;1785;47.388;8.538;2023-11-18T12:46:19;5.63;;;4.90;;
3541;SDS011;1785;47.388;8.538;2023-11-18T12:49:07;37.70;;;25.20;;
3541;SDS011;1785;47.388;8.538;2023-11-18T12:51:41;30.50;;;22.50;;
3541;SDS011;1785;47.388;8.538;2023-11-18T12:54:09;22.80;;;16.23;;
3541;SDS011;1785;47.388;8.538;2023-11-18T12:56:37;22.20;;;15.70;;
3541;SDS011;1785;47.388;8.538;2023-11-18T12:59:04;16.87;;;10.90;;
3541;SDS011;1785;47.388;8.538;2023-11-18T13:01:32;10.00;;;8.60;;
3541;SDS011;1785;47.388;8.538;2023-11-18T13:04:01;8.40;;;6.70;;
3541;SDS011;1785;47.388;8.538;2023-11-18T13:06:28;3.33;;;2.83;;
3541;SDS011;1785;47.388;8.538;2023-11-18T13:08:55;6.07;;;4.93;;
3541;SDS011;1785;47.388;8.538;2023-11-18T13:11:23;1.90;;;1.80;;
3541;SDS011;1785;47.388;8.538;2023-11-18T13:13:51;2.27;;;2.07;;
3541;SDS011;1785;47.388;8.538;2023-11-18T13:16:18;2.00;;;1.90;;
3541;SDS011;1785;47.388;8.538;2023-11-18T13:18:47;2.70;;;2.37;;
3541;SDS011;1785;47.388;8.538;2023-11-18T13:21:15;2.50;;;2.30;;
3541;SDS011;1785;47.388;8.538;2023-11-18T13:23:45;2.87;;;2.67;;
3541;SDS011;1785;47.388;8.538;2023-11-18T13:26:13;2.30;;;2.10;;
3541;SDS011;1785;47.388;8.538;2023-11-18T13:28:40;2.40;;;2.30;;
3541;SDS011;1785;47.388;8.538;2023-11-18T13:31:08;2.43;;;2.27;;
3541;SDS011;1785;47.388;8.538;2023-11-18T13:33:41;2.70;;;2.50;;
3541;SDS011;1785;47.388;8.538;2023-11-18T13:36:09;2.30;;;2.20;;
3541;SDS011;1785;47.388;8.538;2023-11-18T13:38:36;2.73;;;2.40;;
3541;SDS011;1785;47.388;8.538;2023-11-18T13:41:03;3.30;;;3.10;;
3541;SDS011;1785;47.388;8.538;2023-11-18T13:43:41;2.80;;;2.60;;
3541;SDS011;1785;47.388;8.538;2023-11-18T13:46:10;2.57;;;2.43;;
3541;SDS011;1785;47.388;8.538;2023-11-18T13:48:38;2.10;;;2.00;;
3541;SDS011;1785;47.388;8.538;2023-11-18T13:51:06;3.30;;;3.10;;
3541;SDS011;1785;47.388;8.538;2023-11-18T13:53:34;3.10;;;2.90;;
3541;SDS011;1785;47.388;8.538;2023-11-18T13:56:02;5.20;;;3.60;;
3541;SDS011;1785;47.388;8.538;2023-11-18T13:58:29;3.17;;;2.97;;
3541;SDS011;1785;47.388;8.538;2023-11-18T14:00:56;3.53;;;3.27;;
3541;SDS011;1785;47.388;8.538;2023-11-18T14:03:22;2.90;;;2.70;;
3541;SDS011;1785;47.388;8.538;2023-11-18T14:05:51;2.77;;;2.57;;
3541;SDS011;1785;47.388;8.538;2023-11-18T14:08:20;3.00;;;2.80;;
3541;SDS011;1785;47.388;8.538;2023-11-18T14:10:51;3.10;;;2.90;;
3541;SDS011;1785;47.388;8.538;2023-11-18T14:13:17;2.40;;;2.30;;
3541;SDS011;1785;47.388;8.538;2023-11-18T14:15:44;2.80;;;2.60;;
3541;SDS011;1785;47.388;8.538;2023-11-18T14:18:13;2.30;;;2.10;;
3541;SDS011;1785;47.388;8.538;2023-11-18T14:20:39;2.53;;;2.10;;
3541;SDS011;1785;47.388;8.538;2023-11-18T14:23:05;2.50;;;2.40;;
3541;SDS011;1785;47.388;8.538;2023-11-18T14:25:34;2.57;;;2.37;;
3541;SDS011;1785;47.388;8.538;2023-11-18T14:28:00;2.90;;;2.70;;
3541;SDS011;1785;47.388;8.538;2023-11-18T14:30:28;2.47;;;2.37;;
3541;SDS011;1785;47.388;8.538;2023-11-18T14:32:55;2.60;;;2.50;;
3541;SDS011;1785;47.388;8.538;2023-11-18T14:35:22;2.80;;;2.60;;
3541;SDS011;1785;47.388;8.538;2023-11-18T14:37:49;4.00;;;3.60;;
3541;SDS011;1785;47.388;8.538;2023-11-18T14:40:16;3.43;;;3.10;;
3541;SDS011;1785;47.388;8.538;2023-11-18T14:42:42;4.13;;;3.10;;
3541;SDS011;1785;47.388;8.538;2023-11-18T14:45:10;3.17;;;2.97;;
3541;SDS011;1785;47.388;8.538;2023-11-18T14:47:38;4.00;;;3.60;;
3541;SDS011;1785;47.388;8.538;2023-11-18T14:50:05;3.33;;;3.13;;
3541;SDS011;1785;47.388;8.538;2023-11-18T14:52:41;3.83;;;3.57;;
3541;SDS011;1785;47.388;8.538;2023-11-18T14:55:08;3.87;;;3.57;;
3541;SDS011;1785;47.388;8.538;2023-11-18T14:57:37;5.60;;;4.17;;
3541;SDS011;1785;47.388;8.538;2023-11-18T15:00:04;4.50;;;3.80;;
3541;SDS011;1785;47.388;8.538;2023-11-18T15:02:45;3.30;;;3.00;;
3541;SDS011;1785;47.388;8.538;2023-11-18T15:05:13;3.63;;;3.33;;
3541;SDS011;1785;47.388;8.538;2023-11-18T15:07:44;3.73;;;3.53;;
3541;SDS011;1785;47.388;8.538;2023-11-18T15:10:13;3.43;;;3.20;;
3541;SDS011;1785;47.388;8.538;2023-11-18T15:12:45;4.57;;;4.27;;
3541;SDS011;1785;47.388;8.538;2023-11-18T15:15:12;4.47;;;4.07;;
3541;SDS011;1785;47.388;8.538;2023-11-18T15:17:46;4.30;;;4.10;;
3541;SDS011;1785;47.388;8.538;2023-11-18T15:20:14;4.43;;;4.13;;
3541;SDS011;1785;47.388;8.538;2023-11-18T15:22:42;5.40;;;4.17;;
3541;SDS011;1785;47.388;8.538;2023-11-18T15:25:10;3.70;;;3.40;;
3541;SDS011;1785;47.388;8.538;2023-11-18T15:27:38;4.33;;;3.80;;